createdAt,value
2022-12-19T00:01:55.486Z,-2.40
2022-12-19T00:04:22.507Z,-2.50
2022-12-19T00:06:49.520Z,-2.50
2022-12-19T00:09:16.590Z,-2.50
2022-12-19T00:11:43.594Z,-2.50
2022-12-19T00:14:11.821Z,-2.60
2022-12-19T00:16:38.839Z,-2.70
2022-12-19T00:19:07.873Z,-2.60
2022-12-19T00:21:35.497Z,-2.80
2022-12-19T00:24:18.399Z,-2.80
2022-12-19T00:26:49.025Z,-2.70
2022-12-19T00:29:16.287Z,-2.80
2022-12-19T00:31:43.725Z,-2.90
2022-12-19T00:34:11.012Z,-2.90
2022-12-19T00:36:40.105Z,-2.90
2022-12-19T00:39:08.768Z,-2.90
2022-12-19T00:41:41.691Z,-2.90
2022-12-19T00:44:15.527Z,-2.70
2022-12-19T00:46:43.012Z,-2.80
2022-12-19T00:49:14.114Z,-2.80
2022-12-19T00:51:41.187Z,-2.70
2022-12-19T00:54:10.921Z,-2.80
2022-12-19T00:56:38.931Z,-2.80
2022-12-19T00:59:10.392Z,-2.90
2022-12-19T01:01:41.362Z,-2.90
2022-12-19T01:04:30.781Z,-2.90
2022-12-19T01:07:02.118Z,-2.90
2022-12-19T01:09:33.772Z,-2.80
2022-12-19T01:12:20.484Z,-2.90
2022-12-19T01:15:03.758Z,-2.90
2022-12-19T01:17:36.990Z,-2.80
2022-12-19T01:20:14.506Z,-2.70
2022-12-19T01:22:41.492Z,-2.70
2022-12-19T01:25:08.801Z,-2.80
2022-12-19T01:27:38.616Z,-2.70
2022-12-19T01:30:07.474Z,-2.70
2022-12-19T01:32:36.298Z,-2.80
2022-12-19T01:35:04.338Z,-2.80
2022-12-19T01:37:31.246Z,-2.90
2022-12-19T01:39:58.504Z,-2.90
2022-12-19T01:42:25.414Z,-2.80
2022-12-19T01:45:07.691Z,-2.80
2022-12-19T01:48:04.182Z,-2.80
2022-12-19T01:50:59.074Z,-2.90
2022-12-19T01:53:37.329Z,-2.80
2022-12-19T01:56:17.395Z,-2.90
2022-12-19T01:58:47.531Z,-2.80
2022-12-19T02:01:17.892Z,-2.70
2022-12-19T02:03:45.904Z,-2.90
2022-12-19T02:06:16.341Z,-2.90
2022-12-19T02:08:47.491Z,-3.10
2022-12-19T02:11:14.671Z,-3.10
2022-12-19T02:13:42.076Z,-3.00
2022-12-19T02:16:51.849Z,-2.90
2022-12-19T02:19:55.572Z,-3.00
2022-12-19T02:23:00.628Z,-3.00
2022-12-19T02:25:56.648Z,-2.90
2022-12-19T02:29:16.927Z,-3.00
2022-12-19T02:31:53.191Z,-3.00
2022-12-19T02:34:32.788Z,-2.90
2022-12-19T02:37:14.208Z,-3.00
2022-12-19T02:40:21.868Z,-3.00
2022-12-19T02:42:58.309Z,-2.90
2022-12-19T02:45:30.976Z,-2.90
2022-12-19T02:48:04.518Z,-2.80
2022-12-19T02:50:44.634Z,-2.80
2022-12-19T02:53:16.135Z,-2.70
2022-12-19T02:56:23.338Z,-2.70
2022-12-19T02:59:10.138Z,-2.80
2022-12-19T03:01:52.964Z,-2.70
2022-12-19T03:04:28.949Z,-2.60
2022-12-19T03:07:18.293Z,-2.60
2022-12-19T03:10:21.866Z,-2.80
2022-12-19T03:13:04.021Z,-2.60
2022-12-19T03:15:32.889Z,-2.50
2022-12-19T03:18:01.798Z,-2.50
2022-12-19T03:21:12.745Z,-2.40
2022-12-19T03:23:41.258Z,-2.40
2022-12-19T03:26:21.846Z,-2.40
2022-12-19T03:29:15.271Z,-2.40
2022-12-19T03:31:45.378Z,-2.30
2022-12-19T03:34:21.426Z,-2.50
2022-12-19T03:36:56.565Z,-2.40
2022-12-19T03:39:26.515Z,-2.40
2022-12-19T03:42:13.764Z,-2.40
2022-12-19T03:44:43.354Z,-2.30
2022-12-19T03:47:42.046Z,-2.30
2022-12-19T03:50:10.066Z,-2.20
2022-12-19T03:52:52.285Z,-2.10
2022-12-19T03:55:22.614Z,-2.10
2022-12-19T03:58:09.772Z,-1.90
2022-12-19T04:00:39.270Z,-1.80
2022-12-19T04:03:08.391Z,-1.80
2022-12-19T04:05:37.733Z,-1.80
2022-12-19T04:08:08.363Z,-1.90
2022-12-19T04:11:08.154Z,-1.90
2022-12-19T04:14:02.468Z,-1.90
2022-12-19T04:16:48.741Z,-1.90
2022-12-19T04:19:27.365Z,-1.80
2022-12-19T04:22:12.524Z,-1.70
2022-12-19T04:24:42.155Z,-1.80
2022-12-19T04:27:11.263Z,-1.80
2022-12-19T04:29:39.922Z,-1.60
2022-12-19T04:32:08.953Z,-1.80
2022-12-19T04:34:38.933Z,-1.70
2022-12-19T04:37:10.332Z,-1.70
2022-12-19T04:39:37.500Z,-1.60
2022-12-19T04:42:04.664Z,-1.60
2022-12-19T04:44:31.761Z,-1.60
2022-12-19T04:46:58.839Z,-1.70
2022-12-19T04:49:25.988Z,-1.60
2022-12-19T04:51:53.025Z,-1.60
2022-12-19T04:54:21.582Z,-1.70
2022-12-19T04:56:48.666Z,-1.70
2022-12-19T04:59:15.791Z,-1.70
2022-12-19T05:01:42.895Z,-1.70
2022-12-19T05:04:10.054Z,-1.70
2022-12-19T05:06:38.306Z,-1.70
2022-12-19T05:09:05.491Z,-1.60
2022-12-19T05:11:32.646Z,-1.60
2022-12-19T05:14:00.044Z,-1.50
2022-12-19T05:16:27.244Z,-1.60
2022-12-19T05:18:54.592Z,-1.70
2022-12-19T05:21:23.096Z,-1.70
2022-12-19T05:23:51.422Z,-1.60
2022-12-19T05:26:18.701Z,-1.70
2022-12-19T05:28:45.704Z,-1.60
2022-12-19T05:31:19.934Z,-1.70
2022-12-19T05:33:48.787Z,-1.70
2022-12-19T05:36:17.491Z,-1.60
2022-12-19T05:38:44.971Z,-1.60
2022-12-19T05:41:21.886Z,-1.60
2022-12-19T05:43:55.669Z,-1.60
2022-12-19T05:46:23.812Z,-1.60
2022-12-19T05:48:51.661Z,-1.60
2022-12-19T05:51:19.516Z,-1.70
2022-12-19T05:53:47.033Z,-1.60
2022-12-19T05:56:18.538Z,-1.50
2022-12-19T05:58:46.473Z,-1.50
2022-12-19T06:03:49.684Z,-1.40
2022-12-19T06:06:20.411Z,-1.30
2022-12-19T06:08:47.685Z,-1.40
2022-12-19T06:11:15.316Z,-1.20
2022-12-19T06:13:42.533Z,-1.20
2022-12-19T06:16:18.707Z,-1.20
2022-12-19T06:18:46.829Z,-1.30
2022-12-19T06:21:17.707Z,-1.20
2022-12-19T06:23:45.605Z,-1.40
2022-12-19T06:26:19.368Z,-1.20
2022-12-19T06:28:49.405Z,-1.10
2022-12-19T06:31:17.095Z,-1.00
2022-12-19T06:33:44.754Z,-1.00
2022-12-19T06:36:26.019Z,-1.00
2022-12-19T06:38:54.777Z,-1.10
2022-12-19T06:41:40.729Z,-1.10
2022-12-19T06:44:12.090Z,-0.90
2022-12-19T06:46:41.387Z,-0.90
2022-12-19T06:49:10.078Z,-0.90
2022-12-19T06:51:37.580Z,-0.80
2022-12-19T06:54:05.202Z,-0.80
2022-12-19T06:56:40.901Z,-0.70
2022-12-19T06:59:12.032Z,-0.80
2022-12-19T07:01:57.087Z,-0.80
2022-12-19T07:04:33.427Z,-0.70
2022-12-19T07:07:01.277Z,-0.90
2022-12-19T07:09:29.758Z,-0.80
2022-12-19T07:11:57.077Z,-0.70
2022-12-19T07:14:24.249Z,-0.70
2022-12-19T07:16:53.165Z,-0.80
2022-12-19T07:19:22.103Z,-0.80
2022-12-19T07:21:49.443Z,-0.70
2022-12-19T07:24:16.674Z,-0.60
2022-12-19T07:26:45.111Z,-0.60
2022-12-19T07:29:12.766Z,-0.60
2022-12-19T07:31:39.899Z,-0.50
2022-12-19T07:34:06.999Z,-0.60
2022-12-19T07:36:34.195Z,-0.60
2022-12-19T07:39:01.798Z,-0.50
2022-12-19T07:41:28.896Z,-0.50
2022-12-19T07:43:56.004Z,-0.50
2022-12-19T07:46:23.267Z,-0.50
2022-12-19T07:48:50.758Z,-0.40
2022-12-19T07:51:17.861Z,-0.40
2022-12-19T07:53:44.927Z,-0.30
2022-12-19T07:56:12.059Z,-0.50
2022-12-19T07:58:39.253Z,-0.30
2022-12-19T08:01:06.502Z,-0.20
2022-12-19T08:03:35.984Z,-0.10
2022-12-19T08:06:06.489Z,0.00
2022-12-19T08:08:34.695Z,0.10
2022-12-19T08:11:27.278Z,0.00
2022-12-19T08:13:55.237Z,0.20
2022-12-19T08:16:25.423Z,0.20
2022-12-19T08:18:53.648Z,0.30
2022-12-19T08:21:21.283Z,0.30
2022-12-19T08:23:48.815Z,0.40
2022-12-19T08:26:24.869Z,0.30
2022-12-19T08:28:58.091Z,0.40
2022-12-19T08:31:27.408Z,0.30
2022-12-19T08:33:57.273Z,0.50
2022-12-19T08:36:24.650Z,0.50
2022-12-19T08:38:52.468Z,0.60
2022-12-19T08:41:19.844Z,0.40
2022-12-19T08:43:54.144Z,0.60
2022-12-19T08:46:22.647Z,0.90
2022-12-19T08:48:50.309Z,0.60
2022-12-19T08:51:18.173Z,0.70
2022-12-19T08:53:46.731Z,1.00
2022-12-19T08:56:20.375Z,1.00
2022-12-19T08:58:48.063Z,1.10
2022-12-19T09:01:24.200Z,1.10
2022-12-19T09:04:03.912Z,0.90
2022-12-19T09:06:38.667Z,1.00
2022-12-19T09:09:05.913Z,1.10
2022-12-19T09:11:33.451Z,1.20
2022-12-19T09:14:05.075Z,1.20
2022-12-19T09:16:32.301Z,1.20
2022-12-19T09:18:59.452Z,1.30
2022-12-19T09:21:29.292Z,1.50
2022-12-19T09:24:07.066Z,1.40
2022-12-19T09:26:36.193Z,1.60
2022-12-19T09:29:08.256Z,1.60
2022-12-19T09:31:47.530Z,1.70
2022-12-19T09:34:16.373Z,1.40
2022-12-19T09:36:43.575Z,1.60
2022-12-19T09:39:12.438Z,1.50
2022-12-19T09:41:42.264Z,1.50
2022-12-19T09:44:52.790Z,1.50
2022-12-19T09:47:29.473Z,1.60
2022-12-19T09:50:00.060Z,1.80
2022-12-19T09:52:44.615Z,2.00
2022-12-19T09:55:24.828Z,1.80
2022-12-19T09:58:20.722Z,1.80
2022-12-19T10:01:00.231Z,1.90
2022-12-19T10:03:42.541Z,1.80
2022-12-19T10:07:21.157Z,2.00
2022-12-19T10:10:38.380Z,2.20
2022-12-19T10:12:57.088Z,2.20
2022-12-19T10:15:44.042Z,2.20
2022-12-19T10:18:42.338Z,2.10
2022-12-19T10:22:18.387Z,2.30
2022-12-19T10:25:02.038Z,2.20
2022-12-19T10:27:59.559Z,2.10
2022-12-19T10:30:32.327Z,2.10
2022-12-19T10:33:23.323Z,2.30
2022-12-19T10:35:57.517Z,2.40
2022-12-19T10:38:46.282Z,2.50
2022-12-19T10:41:26.410Z,2.30
2022-12-19T10:44:02.655Z,2.20
2022-12-19T10:46:38.435Z,2.50
2022-12-19T10:49:17.021Z,2.40
2022-12-19T10:51:56.461Z,2.80
2022-12-19T10:54:30.712Z,3.00
2022-12-19T10:57:28.380Z,2.70
2022-12-19T11:00:00.998Z,2.80
2022-12-19T11:02:44.698Z,2.90
2022-12-19T11:05:51.247Z,3.00
2022-12-19T11:08:30.870Z,2.90
2022-12-19T11:13:33.810Z,3.00
2022-12-19T11:19:52.795Z,3.00
2022-12-19T11:22:58.036Z,3.30
2022-12-19T11:29:16.270Z,3.50
2022-12-19T11:29:41.739Z,3.10
2022-12-19T11:30:09.921Z,3.30
2022-12-19T11:30:48.858Z,2.90
2022-12-19T11:34:26.532Z,3.60
2022-12-19T11:37:26.894Z,3.50
2022-12-19T11:40:05.527Z,3.80
2022-12-19T11:43:25.573Z,3.50
2022-12-19T11:45:57.829Z,3.40
2022-12-19T11:48:49.878Z,3.60
2022-12-19T11:51:48.929Z,3.60
2022-12-19T11:54:32.991Z,3.40
2022-12-19T11:57:00.747Z,3.10
2022-12-19T11:59:38.678Z,3.00
2022-12-19T12:02:58.746Z,3.10
2022-12-19T12:05:48.302Z,3.00
2022-12-19T12:10:12.004Z,2.90
2022-12-19T12:18:50.504Z,2.80
2022-12-19T12:26:55.553Z,2.80
2022-12-19T12:31:01.331Z,2.70
2022-12-19T12:31:09.677Z,2.60
2022-12-19T12:31:58.468Z,2.70
2022-12-19T12:32:06.510Z,2.80
2022-12-19T12:35:38.054Z,2.80
2022-12-19T12:42:04.605Z,2.40
2022-12-19T12:44:45.284Z,2.40
2022-12-19T12:47:22.560Z,2.60
2022-12-19T12:49:55.901Z,2.60
2022-12-19T12:52:45.883Z,2.70
2022-12-19T12:55:15.546Z,2.40
2022-12-19T12:57:42.693Z,2.40
2022-12-19T13:00:19.596Z,2.40
2022-12-19T13:03:16.552Z,2.50
2022-12-19T13:05:46.759Z,2.40
2022-12-19T13:08:48.950Z,2.20
2022-12-19T13:12:04.488Z,2.30
2022-12-19T13:14:34.729Z,2.30
2022-12-19T13:17:18.281Z,2.20
2022-12-19T13:20:03.580Z,2.30
2022-12-19T13:22:31.468Z,2.30
2022-12-19T13:25:00.605Z,2.40
2022-12-19T13:27:38.760Z,2.20
2022-12-19T13:30:14.956Z,2.30
2022-12-19T13:32:42.005Z,2.40
2022-12-19T13:36:05.195Z,2.20
2022-12-19T13:39:59.350Z,2.30
2022-12-19T13:41:24.264Z,2.20
2022-12-19T13:43:51.606Z,2.30
2022-12-19T13:46:47.997Z,2.20
2022-12-19T13:49:19.443Z,2.30
2022-12-19T13:51:49.084Z,2.20
2022-12-19T13:54:24.893Z,2.20
2022-12-19T13:56:54.308Z,2.20
2022-12-19T13:59:26.499Z,2.30
2022-12-19T14:01:55.083Z,2.20
2022-12-19T14:04:30.397Z,2.20
2022-12-19T14:07:06.333Z,2.10
2022-12-19T14:11:36.817Z,2.10
2022-12-19T14:13:54.750Z,2.10
2022-12-19T14:15:52.405Z,2.10
2022-12-19T14:18:43.178Z,1.90
2022-12-19T14:22:04.926Z,1.90
2022-12-19T14:24:25.015Z,1.80
2022-12-19T14:28:24.584Z,1.90
2022-12-19T14:30:30.317Z,1.80
2022-12-19T14:33:44.433Z,1.70
2022-12-19T14:36:10.603Z,1.90
2022-12-19T14:39:27.377Z,1.70
2022-12-19T14:41:49.137Z,1.70
2022-12-19T14:52:08.128Z,1.80
2022-12-19T14:53:51.899Z,1.80
2022-12-19T14:54:25.678Z,1.70
2022-12-19T14:54:27.384Z,1.60
2022-12-19T14:59:13.602Z,1.70
2022-12-19T15:01:40.982Z,1.50
2022-12-19T15:04:53.140Z,1.60
2022-12-19T15:07:15.217Z,1.70
2022-12-19T15:11:03.347Z,1.70
2022-12-19T15:14:47.323Z,1.80
2022-12-19T15:16:06.498Z,1.70
2022-12-19T15:18:33.570Z,1.80
2022-12-19T15:21:04.181Z,1.80
2022-12-19T15:23:32.763Z,1.90
2022-12-19T15:26:12.004Z,2.00
2022-12-19T15:28:58.427Z,1.90
2022-12-19T15:31:43.292Z,1.90
2022-12-19T15:36:58.501Z,1.80
2022-12-19T15:39:29.453Z,1.70
2022-12-19T15:41:59.662Z,1.80
2022-12-19T15:44:32.519Z,1.90
2022-12-19T15:47:06.355Z,2.00
2022-12-19T15:49:35.213Z,2.00
2022-12-19T15:52:02.976Z,2.00
2022-12-19T15:57:31.979Z,2.00
2022-12-19T16:00:04.352Z,2.00
2022-12-19T16:02:56.862Z,2.00
2022-12-19T16:05:23.031Z,2.00
2022-12-19T16:07:50.379Z,2.00
2022-12-19T16:10:18.857Z,2.00
2022-12-19T16:12:51.983Z,2.00
2022-12-19T16:15:41.079Z,2.10
2022-12-19T16:18:14.009Z,2.10
2022-12-19T16:20:43.149Z,2.10
2022-12-19T16:23:11.754Z,2.10
2022-12-19T16:25:45.681Z,2.00
2022-12-19T16:28:29.464Z,2.00
2022-12-19T16:30:58.840Z,2.00
2022-12-19T16:33:29.733Z,2.00
2022-12-19T16:36:06.511Z,2.00
2022-12-19T16:38:35.491Z,2.10
2022-12-19T16:41:02.939Z,2.10
2022-12-19T16:43:39.232Z,2.00
2022-12-19T16:46:08.644Z,2.10
2022-12-19T16:48:36.003Z,2.30
2022-12-19T16:51:03.691Z,2.10
2022-12-19T16:53:31.160Z,2.00
2022-12-19T16:56:00.141Z,2.20
2022-12-19T16:58:28.938Z,2.30
2022-12-19T17:00:56.799Z,2.10
2022-12-19T17:03:36.415Z,2.20
2022-12-19T17:06:04.380Z,2.30
2022-12-19T17:08:32.502Z,2.20
2022-12-19T17:10:59.917Z,2.10
2022-12-19T17:13:27.320Z,2.20
2022-12-19T17:15:57.293Z,2.30
2022-12-19T17:18:32.492Z,2.30
2022-12-19T17:21:00.051Z,2.20
2022-12-19T17:23:30.138Z,2.30
2022-12-19T17:25:59.418Z,2.30
2022-12-19T17:28:28.274Z,2.30
2022-12-19T17:30:59.363Z,2.50
2022-12-19T17:33:35.710Z,2.50
2022-12-19T17:36:04.455Z,2.30
2022-12-19T17:38:32.241Z,2.40
2022-12-19T17:40:59.682Z,2.50
2022-12-19T17:43:26.817Z,2.60
2022-12-19T17:45:54.007Z,2.40
2022-12-19T17:48:33.475Z,2.40
2022-12-19T17:51:00.622Z,2.40
2022-12-19T17:53:28.437Z,2.40
2022-12-19T17:55:56.115Z,2.40
2022-12-19T17:58:23.470Z,2.40
2022-12-19T18:00:51.860Z,2.40
2022-12-19T18:03:26.161Z,2.30
2022-12-19T18:05:55.892Z,2.30
2022-12-19T18:08:32.342Z,2.40
2022-12-19T18:11:03.172Z,2.30
2022-12-19T18:13:31.604Z,2.50
2022-12-19T18:16:02.381Z,2.60
2022-12-19T18:18:35.471Z,2.60
2022-12-19T18:21:04.668Z,2.60
2022-12-19T18:23:32.397Z,2.60
2022-12-19T18:26:02.366Z,2.50
2022-12-19T18:28:30.485Z,2.70
2022-12-19T18:31:22.908Z,2.50
2022-12-19T18:33:50.522Z,2.50
2022-12-19T18:36:24.622Z,2.60
2022-12-19T18:38:52.904Z,2.50
2022-12-19T18:41:21.110Z,2.70
2022-12-19T18:43:49.282Z,2.60
2022-12-19T18:46:24.667Z,2.50
2022-12-19T18:48:51.834Z,2.50
2022-12-19T18:51:21.712Z,2.30
2022-12-19T18:53:49.570Z,2.30
2022-12-19T18:56:16.782Z,2.40
2022-12-19T18:58:43.922Z,2.30
2022-12-19T19:01:18.186Z,2.40
2022-12-19T19:03:54.933Z,2.50
2022-12-19T19:06:26.290Z,2.60
2022-12-19T19:08:54.114Z,2.50
2022-12-19T19:11:35.334Z,2.40
2022-12-19T19:14:02.400Z,2.20
2022-12-19T19:16:29.861Z,2.30
2022-12-19T19:18:58.801Z,2.30
2022-12-19T19:21:35.229Z,2.30
2022-12-19T19:24:15.929Z,2.40
2022-12-19T19:26:43.118Z,2.50
2022-12-19T19:29:10.985Z,2.40
2022-12-19T19:31:41.443Z,2.50
2022-12-19T19:34:28.319Z,2.50
2022-12-19T19:36:59.348Z,2.50
2022-12-19T19:39:27.919Z,2.50
2022-12-19T19:41:56.346Z,2.40
2022-12-19T19:44:24.828Z,2.40
2022-12-19T19:46:52.092Z,2.50
2022-12-19T19:49:21.425Z,2.50
2022-12-19T19:51:48.600Z,2.60
2022-12-19T19:54:16.030Z,2.50
2022-12-19T19:56:43.187Z,2.30
2022-12-19T19:59:10.757Z,2.30
2022-12-19T20:01:38.063Z,2.40
2022-12-19T20:04:05.471Z,2.40
2022-12-19T20:06:32.795Z,2.40
2022-12-19T20:09:00.044Z,2.30
2022-12-19T20:11:27.716Z,2.30
2022-12-19T20:13:54.741Z,2.30
2022-12-19T20:16:22.721Z,2.30
2022-12-19T20:18:52.311Z,2.30
2022-12-19T20:21:21.418Z,2.30
2022-12-19T20:23:48.776Z,2.20
2022-12-19T20:26:17.380Z,2.10
2022-12-19T20:28:49.377Z,2.10
2022-12-19T20:31:23.127Z,2.00
2022-12-19T20:33:53.229Z,2.10
2022-12-19T20:36:20.671Z,2.10
2022-12-19T20:38:48.625Z,2.10
2022-12-19T20:41:17.300Z,2.00
2022-12-19T20:43:45.244Z,2.00
2022-12-19T20:46:19.767Z,2.10
2022-12-19T20:48:48.387Z,2.10
2022-12-19T20:51:19.323Z,2.00
2022-12-19T20:53:47.217Z,1.90
2022-12-19T20:56:19.428Z,1.90
2022-12-19T20:58:46.926Z,1.80
2022-12-19T21:01:21.088Z,1.80
2022-12-19T21:03:49.039Z,1.80
2022-12-19T21:06:19.846Z,1.80
2022-12-19T21:08:47.803Z,1.80
2022-12-19T21:11:15.923Z,1.70
2022-12-19T21:13:43.258Z,1.60
2022-12-19T21:16:15.141Z,1.60
2022-12-19T21:18:45.431Z,1.60
2022-12-19T21:21:23.238Z,1.60
2022-12-19T21:23:51.683Z,1.60
2022-12-19T21:26:19.808Z,1.60
2022-12-19T21:28:46.882Z,1.70
2022-12-19T21:31:25.284Z,1.80
2022-12-19T21:34:01.251Z,1.80
2022-12-19T21:36:30.234Z,1.80
2022-12-19T21:39:00.514Z,1.70
2022-12-19T21:41:29.341Z,1.80
2022-12-19T21:43:57.004Z,1.70
2022-12-19T21:46:27.777Z,1.70
2022-12-19T21:48:56.739Z,1.70
2022-12-19T21:51:28.324Z,1.70
2022-12-19T21:54:01.571Z,1.70
2022-12-19T21:56:32.551Z,1.70
2022-12-19T21:59:05.625Z,1.80
2022-12-19T22:01:33.858Z,1.80
2022-12-19T22:04:22.738Z,1.80
2022-12-19T22:06:51.290Z,1.80
2022-12-19T22:09:22.444Z,1.70
2022-12-19T22:11:50.028Z,1.70
2022-12-19T22:14:17.925Z,1.80
2022-12-19T22:16:45.269Z,1.70
2022-12-19T22:19:17.747Z,1.70
2022-12-19T22:21:46.778Z,1.70
2022-12-19T22:24:16.219Z,1.60
2022-12-19T22:26:43.691Z,1.60
2022-12-19T22:29:15.018Z,1.50
2022-12-19T22:31:43.356Z,1.40
2022-12-19T22:34:14.221Z,1.50
2022-12-19T22:36:42.920Z,1.50
2022-12-19T22:39:14.678Z,1.40
2022-12-19T22:41:42.684Z,1.50
2022-12-19T22:44:23.065Z,1.40
2022-12-19T22:46:51.050Z,1.50
2022-12-19T22:49:18.335Z,1.40
2022-12-19T22:51:46.320Z,1.40
2022-12-19T22:54:14.075Z,1.40
2022-12-19T22:56:42.225Z,1.40
2022-12-19T22:59:11.929Z,1.30
2022-12-19T23:01:42.720Z,1.30
2022-12-19T23:04:14.221Z,1.30
2022-12-19T23:06:42.102Z,1.30
2022-12-19T23:09:14.301Z,1.30
2022-12-19T23:11:43.173Z,1.20
2022-12-19T23:14:15.155Z,1.30
2022-12-19T23:16:44.259Z,1.30
2022-12-19T23:19:11.842Z,1.30
2022-12-19T23:21:38.948Z,1.30
2022-12-19T23:24:07.160Z,1.20
2022-12-19T23:26:36.968Z,1.20
2022-12-19T23:29:11.061Z,1.20
2022-12-19T23:31:42.456Z,1.20
2022-12-19T23:34:10.627Z,1.10
2022-12-19T23:39:25.574Z,1.10
2022-12-19T23:41:52.634Z,1.00
2022-12-19T23:44:20.210Z,1.00
2022-12-19T23:46:47.330Z,1.00
2022-12-19T23:49:14.445Z,1.10
2022-12-19T23:51:41.514Z,1.10
2022-12-19T23:54:08.909Z,1.10
2022-12-19T23:56:36.625Z,1.10
2022-12-19T23:59:04.082Z,1.10
